Point Hope, AK

8:37 AM AKDT on April 25, 2017 (GMT -0800)
Point Hope | | Change Station

Elev 13 ft 68.35 °N, 166.80 °W | Updated 41 minutes ago

Clear
Clear
18 °F
Feels Like 1 °F
N
23
Wind Variable Wind from NNE

Today
High -- | Low -- °F
--% Chance of Precip.
Yesterday
High -- | Low -- °F
Precip. -- in
Pressure 29.78 in
Visibility 10.0 miles
Clouds Clear
Windchill 1 °F
Dew Point 8 °F
Humidity 65%
Rainfall 0.00 in
Snow Depth Not available.
6:26 AM 11:47 PM
Waning Crescent, 1% visible
METAR PAPO 251556Z AUTO 02020KT 10SM CLR M08/M13 A2977 RMK AO2 SLP082 T10781133 FZRANO
Pressure 29.78 in
Visibility 10.0 miles
Clouds Clear
Windchill 1 °F
Dew Point 8 °F
Humidity 65%
Rainfall 0.00 in
Snow Depth Not available.
6:26 AM 11:47 PM
Waning Crescent, 1% visible
METAR PAPO 251556Z AUTO 02020KT 10SM CLR M08/M13 A2977 RMK AO2 SLP082 T10781133 FZRANO

Get Severe Weather Alerts

Thanks for signing up!

Be on the lookout for a verification email in your inbox.

You'll start receiving the daily forecast at 8 AM.

×

10-Day Weather Forecast

Almanac

Astronomy

Apr. 25, 2017 Rise Set
Actual Time
Civil Twilight
Nautical Twilight
Astronomical Twilight
Moon
Length of Visible Light
Length of Day
Tomorrow will be .
, % of the Moon is Illuminated

Today's Extremes

State Highs State Lows

Community

WunderPhotos

WunderBlog® & News

Nearby

Air Quality

  Air Quality AQ Index Pollutant
Not available.

Snow Depth

Station Depth Elevation

Earthquake Activity

City Distance Mag. Time & Date
Minimum magnitude displayed is 2.5.

Coastal Water Temperatures

Place Temperature

Stations

Nearby Weather Stations

Station Location Temp. Windchill Dew Point Humidity Wind Precip. Elev Updated Type
                   

Watches & Warnings

There are currently no watches in effect.